createdAt,value
2023-02-05T00:00:42.499Z,-4.11
2023-02-05T00:03:13.030Z,-4.12
2023-02-05T00:05:42.413Z,-4.11
2023-02-05T00:08:11.453Z,-4.07
2023-02-05T00:10:43.724Z,-4.04
2023-02-05T00:13:12.723Z,-4.02
2023-02-05T00:15:42.294Z,-4.03
2023-02-05T00:18:12.977Z,-3.96
2023-02-05T00:20:42.185Z,-3.99
2023-02-05T00:23:12.947Z,-4.06
2023-02-05T00:25:43.980Z,-4.13
2023-02-05T00:28:13.661Z,-4.21
2023-02-05T00:30:43.270Z,-4.29
2023-02-05T00:33:15.171Z,-4.26
2023-02-05T00:35:46.152Z,-4.29
2023-02-05T00:38:15.385Z,-4.35
2023-02-05T00:40:48.440Z,-4.39
2023-02-05T00:43:17.867Z,-4.41
2023-02-05T00:45:47.087Z,-4.43
2023-02-05T00:48:17.799Z,-4.41
2023-02-05T00:50:48.943Z,-4.33
2023-02-05T00:53:20.934Z,-4.37
2023-02-05T00:55:53.696Z,-4.46
2023-02-05T00:58:23.297Z,-4.52
2023-02-05T01:00:53.062Z,-4.45
2023-02-05T01:03:28.661Z,-4.49
2023-02-05T01:05:57.949Z,-4.52
2023-02-05T01:08:27.185Z,-4.55
2023-02-05T01:10:56.942Z,-4.58
2023-02-05T01:13:26.116Z,-4.58
2023-02-05T01:15:55.419Z,-4.54
2023-02-05T01:18:26.348Z,-4.49
2023-02-05T01:20:55.600Z,-4.53
2023-02-05T01:23:24.885Z,-4.62
2023-02-05T01:25:55.839Z,-4.67
2023-02-05T01:28:25.244Z,-4.73
2023-02-05T01:30:57.183Z,-4.80
2023-02-05T01:33:27.701Z,-4.83
2023-02-05T01:35:58.914Z,-4.84
2023-02-05T01:38:27.876Z,-4.88
2023-02-05T01:40:56.758Z,-4.88
2023-02-05T01:43:25.958Z,-4.91
2023-02-05T01:46:20.753Z,-4.90
2023-02-05T01:48:59.286Z,-6.14
2023-02-05T01:51:34.980Z,-4.93
2023-02-05T01:54:05.129Z,-4.90
2023-02-05T01:56:39.973Z,-4.96
2023-02-05T01:59:14.367Z,-4.97
2023-02-05T02:01:45.144Z,-4.93
2023-02-05T02:04:29.547Z,-4.96
2023-02-05T02:06:59.043Z,-4.97
2023-02-05T02:09:28.593Z,-4.96
2023-02-05T02:11:59.898Z,-5.00
2023-02-05T02:14:32.345Z,-5.01
2023-02-05T02:17:05.958Z,-5.04
2023-02-05T02:19:45.620Z,-6.23
2023-02-05T02:22:50.255Z,-5.10
2023-02-05T02:25:50.684Z,-5.05
2023-02-05T02:28:28.182Z,-5.05
2023-02-05T02:31:12.978Z,-5.06
2023-02-05T02:33:49.577Z,-5.06
2023-02-05T02:36:24.160Z,-5.13
2023-02-05T02:38:59.743Z,-5.17
2023-02-05T02:41:41.021Z,-5.21
2023-02-05T02:44:21.370Z,-5.21
2023-02-05T02:46:57.320Z,-5.19
2023-02-05T02:49:34.734Z,-5.28
2023-02-05T02:52:08.620Z,-5.32
2023-02-05T02:54:41.312Z,-5.34
2023-02-05T02:57:14.618Z,-5.35
2023-02-05T02:59:49.837Z,-5.31
2023-02-05T03:02:19.586Z,-5.25
2023-02-05T03:04:55.641Z,-5.28
2023-02-05T03:07:31.661Z,-5.28
2023-02-05T03:10:08.344Z,-5.33
2023-02-05T03:12:37.988Z,-5.34
2023-02-05T03:15:14.556Z,-5.32
2023-02-05T03:17:50.430Z,-5.30
2023-02-05T03:20:27.366Z,-5.38
2023-02-05T03:22:59.531Z,-5.43
2023-02-05T03:25:35.090Z,-5.44
2023-02-05T03:28:05.967Z,-5.45
2023-02-05T03:30:49.049Z,-5.48
2023-02-05T03:46:52.211Z,-5.56
2023-02-05T03:49:32.259Z,-5.53
2023-02-05T03:52:10.965Z,-5.52
2023-02-05T03:54:47.991Z,-5.55
2023-02-05T03:57:28.402Z,-5.57
2023-02-05T04:00:01.345Z,-5.60
2023-02-05T04:02:38.354Z,-5.55
2023-02-05T04:05:12.296Z,-5.56
2023-02-05T04:07:46.074Z,-5.57
2023-02-05T04:10:17.832Z,-5.57
2023-02-05T04:12:47.654Z,-5.55
2023-02-05T04:15:17.048Z,-5.53
2023-02-05T04:17:51.375Z,-5.46
2023-02-05T04:20:43.412Z,-5.44
2023-02-05T04:23:12.491Z,-5.48
2023-02-05T04:25:44.788Z,-5.52
2023-02-05T04:28:22.862Z,-5.53
2023-02-05T04:30:52.107Z,-5.53
2023-02-05T04:33:24.425Z,-5.56
2023-02-05T04:35:59.649Z,-5.59
2023-02-05T04:38:28.907Z,-5.61
2023-02-05T04:41:02.594Z,-5.62
2023-02-05T04:43:37.461Z,-5.64
2023-02-05T04:46:13.356Z,-5.61
2023-02-05T04:48:44.068Z,-5.61
2023-02-05T04:51:19.087Z,-5.62
2023-02-05T04:54:03.550Z,-5.63
2023-02-05T04:56:33.841Z,-5.60
2023-02-05T04:59:05.605Z,-5.62
2023-02-05T05:01:34.878Z,-5.64
2023-02-05T05:04:05.556Z,-5.65
2023-02-05T05:06:40.670Z,-5.62
2023-02-05T05:09:11.595Z,-5.62
2023-02-05T05:11:47.321Z,-5.63
2023-02-05T05:14:18.408Z,-5.67
2023-02-05T05:16:53.299Z,-5.71
2023-02-05T05:19:26.701Z,-5.74
2023-02-05T05:21:58.186Z,-5.74
2023-02-05T05:24:27.195Z,-5.76
2023-02-05T05:27:00.536Z,-5.77
2023-02-05T05:29:31.330Z,-5.76
2023-02-05T05:32:00.414Z,-5.76
2023-02-05T05:34:31.475Z,-5.74
2023-02-05T05:37:00.747Z,-5.73
2023-02-05T05:39:50.298Z,-5.76
2023-02-05T05:42:37.200Z,-5.78
2023-02-05T05:45:09.781Z,-5.79
2023-02-05T05:47:43.477Z,-5.81
2023-02-05T05:50:21.332Z,-5.81
2023-02-05T05:52:52.828Z,-5.79
2023-02-05T05:55:21.987Z,-5.79
2023-02-05T05:57:51.028Z,-5.81
2023-02-05T06:00:21.843Z,-5.79
2023-02-05T06:02:51.501Z,-5.78
2023-02-05T06:05:28.175Z,-5.78
2023-02-05T06:08:01.123Z,-5.78
2023-02-05T06:10:36.536Z,-5.77
2023-02-05T06:13:06.203Z,-5.72
2023-02-05T06:15:36.490Z,-5.68
2023-02-05T06:18:05.903Z,-5.66
2023-02-05T06:20:36.180Z,-5.61
2023-02-05T06:23:05.006Z,-5.59
2023-02-05T06:25:36.451Z,-5.58
2023-02-05T06:28:07.518Z,-5.54
2023-02-05T06:30:39.382Z,-5.52
2023-02-05T06:33:16.141Z,-5.52
2023-02-05T06:35:52.269Z,-5.46
2023-02-05T06:38:21.570Z,-5.43
2023-02-05T06:40:54.245Z,-5.39
2023-02-05T06:43:31.518Z,-5.33
2023-02-05T06:46:00.720Z,-5.32
2023-02-05T06:48:34.089Z,-5.36
2023-02-05T06:51:13.482Z,-5.38
2023-02-05T06:53:42.270Z,-5.32
2023-02-05T06:56:11.014Z,-5.25
2023-02-05T06:58:42.129Z,-5.19
2023-02-05T07:01:12.972Z,-5.11
2023-02-05T07:03:43.800Z,-5.07
2023-02-05T07:06:16.379Z,-5.00
2023-02-05T07:08:50.762Z,-4.95
2023-02-05T07:11:24.359Z,-4.84
2023-02-05T07:13:55.391Z,-4.70
2023-02-05T07:16:24.506Z,-4.62
2023-02-05T07:18:53.482Z,-4.54
2023-02-05T07:21:27.860Z,-4.41
2023-02-05T07:23:56.722Z,-4.25
2023-02-05T07:26:27.726Z,-4.00
2023-02-05T07:28:56.588Z,-3.74
2023-02-05T07:31:31.481Z,-3.48
2023-02-05T07:34:02.372Z,-3.23
2023-02-05T07:36:37.205Z,-2.89
2023-02-05T07:39:06.224Z,-2.61
2023-02-05T07:41:36.444Z,-2.37
2023-02-05T07:44:07.380Z,-2.09
2023-02-05T07:46:41.344Z,-1.84
2023-02-05T07:49:11.541Z,-1.63
2023-02-05T07:51:41.982Z,-1.41
2023-02-05T07:54:12.392Z,-1.27
2023-02-05T07:56:41.583Z,-1.17
2023-02-05T07:59:11.637Z,-1.14
2023-02-05T08:01:40.701Z,-1.14
2023-02-05T08:04:10.099Z,-1.13
2023-02-05T08:06:47.341Z,-1.03
2023-02-05T08:09:17.001Z,-0.90
2023-02-05T08:11:46.433Z,-0.81
2023-02-05T08:14:15.707Z,-0.66
2023-02-05T08:16:46.880Z,-0.56
2023-02-05T08:19:17.998Z,-0.46
2023-02-05T08:21:57.866Z,-0.39
2023-02-05T08:24:27.799Z,-0.39
2023-02-05T08:26:59.275Z,-0.39
2023-02-05T08:29:28.702Z,-0.31
2023-02-05T08:32:02.035Z,-0.17
2023-02-05T08:34:31.522Z,-0.03
2023-02-05T08:37:04.507Z,0.13
2023-02-05T08:39:34.015Z,0.27
2023-02-05T08:42:07.720Z,0.35
2023-02-05T08:44:41.366Z,0.33
2023-02-05T08:47:10.525Z,0.40
2023-02-05T08:49:42.859Z,0.45
2023-02-05T08:52:14.408Z,0.56
2023-02-05T08:54:49.485Z,0.73
2023-02-05T08:57:26.261Z,0.79
2023-02-05T09:00:23.858Z,0.88
2023-02-05T09:02:57.709Z,1.00
2023-02-05T09:05:37.115Z,1.13
2023-02-05T09:08:11.560Z,1.22
2023-02-05T09:10:42.726Z,1.26
2023-02-05T09:13:13.514Z,1.34
2023-02-05T09:15:44.211Z,1.44
2023-02-05T09:18:16.369Z,1.49
2023-02-05T09:20:49.155Z,1.55
2023-02-05T09:23:23.974Z,1.56
2023-02-05T09:25:54.629Z,1.42
2023-02-05T09:28:26.108Z,1.49
2023-02-05T09:32:01.481Z,1.50
2023-02-05T09:34:51.596Z,1.64
2023-02-05T09:37:21.184Z,1.71
2023-02-05T09:40:20.204Z,1.74
2023-02-05T09:42:58.960Z,1.79
2023-02-05T09:45:42.300Z,1.85
2023-02-05T09:49:23.204Z,1.92
2023-02-05T09:52:41.473Z,2.00
2023-02-05T09:59:29.409Z,2.34
2023-02-05T10:02:00.536Z,2.49
2023-02-05T10:04:30.482Z,2.41
2023-02-05T10:07:28.781Z,2.52
2023-02-05T10:10:22.471Z,2.38
2023-02-05T10:13:19.993Z,2.30
2023-02-05T10:16:25.336Z,1.97
2023-02-05T10:19:15.621Z,2.18
2023-02-05T10:22:02.833Z,2.44
2023-02-05T10:24:50.180Z,2.54
2023-02-05T10:27:23.078Z,2.60
2023-02-05T10:30:02.508Z,2.61
2023-02-05T10:32:47.043Z,2.64
2023-02-05T10:35:26.468Z,2.60
2023-02-05T10:37:57.991Z,2.63
2023-02-05T10:40:36.362Z,2.72
2023-02-05T10:43:19.257Z,2.78
2023-02-05T10:45:48.587Z,2.79
2023-02-05T10:48:41.396Z,2.33
2023-02-05T10:51:37.477Z,2.69
2023-02-05T10:54:14.735Z,2.71
2023-02-05T10:56:53.469Z,2.70
2023-02-05T10:59:29.102Z,2.70
2023-02-05T11:02:04.053Z,2.55
2023-02-05T11:04:49.258Z,2.50
2023-02-05T11:07:26.657Z,2.40
2023-02-05T11:09:56.959Z,2.31
2023-02-05T11:12:31.191Z,2.31
2023-02-05T11:19:23.009Z,2.41
2023-02-05T11:22:38.918Z,2.49
2023-02-05T11:25:16.004Z,2.59
2023-02-05T11:27:54.642Z,2.58
2023-02-05T11:30:50.114Z,2.63
2023-02-05T11:33:31.403Z,2.66
2023-02-05T11:36:03.463Z,2.64
2023-02-05T11:38:39.947Z,2.68
2023-02-05T11:41:11.394Z,2.53
2023-02-05T11:43:42.120Z,2.25
2023-02-05T11:46:16.509Z,2.21
2023-02-05T11:48:49.723Z,2.25
2023-02-05T11:51:39.960Z,2.25
2023-02-05T11:54:21.519Z,2.11
2023-02-05T11:57:34.350Z,2.26
2023-02-05T12:00:19.756Z,2.39
2023-02-05T12:02:54.583Z,2.40
2023-02-05T12:05:28.427Z,2.44
2023-02-05T12:08:09.400Z,2.51
2023-02-05T12:10:48.228Z,2.50
2023-02-05T12:13:25.829Z,2.46
2023-02-05T12:16:07.195Z,2.38
2023-02-05T12:18:50.565Z,2.26
2023-02-05T12:21:33.070Z,2.12
2023-02-05T12:24:30.790Z,2.07
2023-02-05T12:27:15.303Z,2.09
2023-02-05T12:30:05.307Z,2.16
2023-02-05T12:33:16.395Z,2.18
2023-02-05T12:36:03.484Z,2.16
2023-02-05T12:42:29.158Z,2.30
2023-02-05T12:45:25.322Z,2.25
2023-02-05T12:48:25.881Z,2.28
2023-02-05T12:51:06.479Z,2.22
2023-02-05T12:54:08.048Z,2.33
2023-02-05T12:56:58.534Z,2.47
2023-02-05T13:00:33.458Z,2.60
2023-02-05T13:06:59.879Z,2.76
2023-02-05T13:09:53.912Z,2.86
2023-02-05T13:13:10.844Z,2.93
2023-02-05T13:18:48.139Z,2.99
2023-02-05T13:21:38.049Z,3.01
2023-02-05T13:24:40.456Z,2.99
2023-02-05T13:27:40.604Z,2.97
2023-02-05T13:30:16.458Z,2.96
2023-02-05T13:32:49.668Z,2.91
2023-02-05T13:35:22.356Z,2.93
2023-02-05T13:38:17.566Z,2.93
2023-02-05T13:41:21.761Z,2.92
2023-02-05T13:44:14.584Z,2.94
2023-02-05T13:47:22.533Z,2.96
2023-02-05T13:50:29.198Z,2.95
2023-02-05T13:53:27.843Z,2.91
2023-02-05T13:56:41.664Z,2.94
2023-02-05T13:59:18.113Z,2.76
2023-02-05T14:01:58.316Z,2.82
2023-02-05T14:04:34.019Z,2.87
2023-02-05T14:07:08.558Z,2.91
2023-02-05T14:09:42.639Z,2.90
2023-02-05T14:12:14.121Z,2.89
2023-02-05T14:15:27.427Z,2.88
2023-02-05T14:18:00.256Z,2.77
2023-02-05T14:20:35.772Z,2.63
2023-02-05T14:23:20.965Z,2.54
2023-02-05T14:26:11.521Z,2.51
2023-02-05T14:29:06.243Z,2.42
2023-02-05T14:32:00.434Z,2.34
2023-02-05T14:35:01.142Z,2.25
2023-02-05T14:37:55.558Z,2.15
2023-02-05T14:40:30.878Z,2.10
2023-02-05T14:43:10.479Z,2.08
2023-02-05T14:45:48.690Z,2.11
2023-02-05T14:48:31.672Z,2.00
2023-02-05T14:51:18.364Z,1.97
2023-02-05T14:54:10.178Z,1.92
2023-02-05T15:01:45.527Z,1.86
2023-02-05T15:04:42.837Z,1.76
2023-02-05T15:11:06.024Z,1.50
2023-02-05T15:13:42.392Z,1.42
2023-02-05T15:17:33.219Z,1.31
2023-02-05T15:20:34.936Z,1.16
2023-02-05T15:28:17.757Z,0.96
2023-02-05T15:30:54.338Z,0.89
2023-02-05T15:45:05.611Z,0.33
2023-02-05T15:52:39.712Z,0.19
2023-02-05T16:03:00.290Z,-0.12
2023-02-05T16:05:55.312Z,-0.20
2023-02-05T16:09:03.165Z,-0.22
2023-02-05T16:12:36.515Z,-0.31
2023-02-05T16:16:24.340Z,-0.33
2023-02-05T16:19:08.287Z,-0.22
2023-02-05T16:21:42.727Z,-0.33
2023-02-05T16:24:23.278Z,-0.44
2023-02-05T16:27:02.431Z,-0.52
2023-02-05T16:29:47.735Z,-0.59
2023-02-05T16:32:25.287Z,-0.65
2023-02-05T16:34:56.043Z,-0.75
2023-02-05T16:37:32.724Z,-0.84
2023-02-05T16:40:06.122Z,-1.04
2023-02-05T16:42:45.135Z,-0.80
2023-02-05T16:45:31.250Z,-0.88
2023-02-05T16:48:23.241Z,-0.78
2023-02-05T16:50:59.392Z,-0.77
2023-02-05T16:54:09.600Z,-0.87
2023-02-05T18:10:32.555Z,-2.04
2023-02-05T18:13:03.193Z,-2.11
2023-02-05T18:15:36.998Z,-2.12
2023-02-05T18:18:08.290Z,-2.12
2023-02-05T18:21:33.642Z,-2.05
2023-02-05T18:24:11.750Z,-2.05
2023-02-05T18:26:42.724Z,-2.08
2023-02-05T18:29:19.130Z,-2.08
2023-02-05T18:31:48.591Z,-2.04
2023-02-05T18:34:35.743Z,-2.03
2023-02-05T18:37:13.667Z,-2.00
2023-02-05T18:39:44.093Z,-2.04
2023-02-05T18:42:17.958Z,-2.09
2023-02-05T18:44:50.478Z,-2.20
2023-02-05T18:47:19.592Z,-2.24
2023-02-05T18:49:54.835Z,-2.25
2023-02-05T18:52:26.698Z,-2.29
2023-02-05T18:54:55.762Z,-2.31
2023-02-05T18:57:28.128Z,-2.34
2023-02-05T18:59:59.354Z,-2.32
2023-02-05T19:02:29.768Z,-2.24
2023-02-05T19:05:01.683Z,-2.26
2023-02-05T19:07:35.092Z,-2.24
2023-02-05T19:10:04.302Z,-2.22
2023-02-05T19:12:35.535Z,-2.20
2023-02-05T19:15:04.902Z,-2.19
2023-02-05T19:17:33.925Z,-2.23
2023-02-05T19:20:15.917Z,-2.24
2023-02-05T19:22:45.098Z,-2.18
2023-02-05T19:25:15.764Z,-2.21
2023-02-05T19:27:46.190Z,-2.24
2023-02-05T19:30:15.877Z,-2.28
2023-02-05T19:32:44.706Z,-2.31
2023-02-05T19:35:13.923Z,-2.32
2023-02-05T19:37:48.784Z,-2.31
2023-02-05T19:41:18.353Z,-2.32
2023-02-05T19:43:51.502Z,-2.31
2023-02-05T19:46:23.299Z,-2.31
2023-02-05T19:49:02.988Z,-2.33
2023-02-05T19:51:32.014Z,-2.39
2023-02-05T19:54:04.242Z,-2.40
2023-02-05T19:56:35.667Z,-2.42
2023-02-05T19:59:10.074Z,-2.48
2023-02-05T20:01:47.980Z,-2.55
2023-02-05T20:04:28.867Z,-2.66
2023-02-05T20:07:01.943Z,-2.79
2023-02-05T20:10:02.506Z,-2.79
2023-02-05T20:12:51.242Z,-2.81
2023-02-05T20:15:57.149Z,-2.86
2023-02-05T20:18:30.310Z,-2.93
2023-02-05T20:21:15.400Z,-3.00
2023-02-05T20:23:51.063Z,-3.01
2023-02-05T20:26:24.303Z,-3.07
2023-02-05T20:29:17.226Z,-3.13
2023-02-05T20:31:49.763Z,-3.21
2023-02-05T20:34:23.181Z,-3.23
2023-02-05T20:37:04.100Z,-3.27
2023-02-05T20:39:43.049Z,-3.31
2023-02-05T20:42:24.576Z,-3.34
2023-02-05T20:45:03.857Z,-3.41
2023-02-05T20:47:34.427Z,-3.44
2023-02-05T20:50:04.307Z,-3.47
2023-02-05T20:52:35.243Z,-3.46
2023-02-05T20:55:04.106Z,-3.49
2023-02-05T20:57:44.778Z,-3.52
2023-02-05T21:00:41.360Z,-3.51
2023-02-05T21:03:13.813Z,-3.48
2023-02-05T21:05:43.075Z,-3.38
2023-02-05T21:08:13.476Z,-3.30
2023-02-05T21:10:42.548Z,-3.28
2023-02-05T21:13:18.081Z,-3.30
2023-02-05T21:15:59.831Z,-3.32
2023-02-05T21:18:31.106Z,-3.40
2023-02-05T21:21:07.929Z,-3.39
2023-02-05T21:23:38.885Z,-3.35
2023-02-05T21:26:12.622Z,-3.33
2023-02-05T21:28:43.351Z,-3.32
2023-02-05T21:31:12.658Z,-3.34
2023-02-05T21:33:44.509Z,-3.34
2023-02-05T21:36:15.830Z,-3.40
2023-02-05T21:38:44.694Z,-3.46
2023-02-05T21:41:21.828Z,-3.48
2023-02-05T21:43:51.359Z,-3.51
2023-02-05T21:46:20.444Z,-3.59
2023-02-05T21:48:59.948Z,-3.61
2023-02-05T21:51:35.311Z,-3.59
2023-02-05T21:54:08.937Z,-3.58
2023-02-05T21:56:45.311Z,-3.65
2023-02-05T21:59:17.794Z,-3.73
2023-02-05T22:01:47.964Z,-3.83
2023-02-05T22:04:20.953Z,-3.88
2023-02-05T22:06:52.402Z,-3.90
2023-02-05T22:09:26.450Z,-3.83
2023-02-05T22:11:56.441Z,-3.77
2023-02-05T22:14:33.390Z,-3.80
2023-02-05T22:17:02.400Z,-3.84
2023-02-05T22:19:32.679Z,-3.90
2023-02-05T22:22:01.359Z,-3.89
2023-02-05T22:24:30.105Z,-3.91
2023-02-05T22:26:59.193Z,-3.96
2023-02-05T22:29:30.040Z,-4.00
2023-02-05T22:32:00.407Z,-4.03
2023-02-05T22:34:33.609Z,-4.07
2023-02-05T22:37:09.327Z,-4.12
2023-02-05T22:39:43.827Z,-4.16
2023-02-05T22:42:12.676Z,-4.14
2023-02-05T22:44:43.692Z,-4.11
2023-02-05T22:47:20.634Z,-4.14
2023-02-05T22:49:51.146Z,-4.22
2023-02-05T22:52:21.335Z,-4.24
2023-02-05T22:54:52.963Z,-4.28
2023-02-05T22:57:21.907Z,-4.32
2023-02-05T22:59:50.762Z,-4.36
2023-02-05T23:02:19.447Z,-4.33
2023-02-05T23:04:48.240Z,-4.31
2023-02-05T23:07:16.964Z,-4.36
2023-02-05T23:09:47.162Z,-4.40
2023-02-05T23:12:15.919Z,-4.41
2023-02-05T23:14:46.575Z,-4.45
2023-02-05T23:17:15.298Z,-4.48
2023-02-05T23:19:47.056Z,-4.45
2023-02-05T23:22:23.737Z,-4.45
2023-02-05T23:24:58.142Z,-4.48
2023-02-05T23:27:30.508Z,-4.48
2023-02-05T23:29:59.377Z,-4.47
2023-02-05T23:32:30.246Z,-4.44
2023-02-05T23:35:00.813Z,-4.44
2023-02-05T23:37:29.724Z,-4.50
2023-02-05T23:40:02.325Z,-4.54
2023-02-05T23:42:31.180Z,-4.57
2023-02-05T23:45:02.116Z,-4.55
2023-02-05T23:47:38.432Z,-4.57
2023-02-05T23:50:10.979Z,-4.57
2023-02-05T23:52:41.656Z,-4.60
2023-02-05T23:55:11.938Z,-4.64
2023-02-05T23:57:42.373Z,-4.65
